Accueil
METAR-TAF:

METAR-TAF

Aéroports :

Frontone, Italie

latitude: 43-31N, longitude: 012-44E, altitude: 570 m

Observation

Le bulletin a été fait il y a 53 minutes, à 09:55 UTC
Vent 6 kt de sud/sud-est
Température 16°C
Humidité 88%
Pression 1018 hPa
Visibilité: 8000 m
Nuages épars à une hauteur de 1000 ft
Nuages fragmentés à une hauteur de 4000 ft

METAR: LIVF 160955Z 15006KT 8000 SCT010 BKN040 16/14 Q1018 RMK OVC MON S W CIME INC VAL FOSCHIA VIS MIN 8000

Heure: 12:48 (10:48 UTC)


TAF: absent

Observations et prévisions météorologiques de plus de 4000 aéroports (messages METAR et TAF).

Les stations disponibles sont représentées par des disques jaunes et rouges sur la carte.

Passer la souris dessus pour voir le nom de la station.

Cliquer dessus pour voir les observations et prévisions météorologiques.

Pour changer de carte: cliquez sur les boutons verts avec une croix noire pour zoomer, sur le bouton vert avec un tiret pour effectuer un zoom arrière, ou sur les flèches vertes pour les cartes adjacentes.


METAR-TAF: